sensor_id;sensor_type;location;lat;lon;timestamp;P1;durP1;ratioP1;P2;durP2;ratioP2
8596;SDS011;4336;49.310;8.646;2022-10-29T00:01:44;9.70;;;4.67;;
8596;SDS011;4336;49.310;8.646;2022-10-29T00:04:10;10.80;;;4.20;;
8596;SDS011;4336;49.310;8.646;2022-10-29T00:06:36;11.03;;;4.80;;
8596;SDS011;4336;49.310;8.646;2022-10-29T00:09:01;16.90;;;5.07;;
8596;SDS011;4336;49.310;8.646;2022-10-29T00:11:28;18.93;;;5.00;;
8596;SDS011;4336;49.310;8.646;2022-10-29T00:13:55;9.03;;;4.07;;
8596;SDS011;4336;49.310;8.646;2022-10-29T00:16:23;9.77;;;4.27;;
8596;SDS011;4336;49.310;8.646;2022-10-29T00:18:50;6.03;;;4.07;;
8596;SDS011;4336;49.310;8.646;2022-10-29T00:21:18;6.03;;;4.03;;
8596;SDS011;4336;49.310;8.646;2022-10-29T00:23:45;7.27;;;4.17;;
8596;SDS011;4336;49.310;8.646;2022-10-29T00:26:11;7.80;;;4.63;;
8596;SDS011;4336;49.310;8.646;2022-10-29T00:28:37;13.63;;;4.73;;
8596;SDS011;4336;49.310;8.646;2022-10-29T00:31:04;12.83;;;5.70;;
8596;SDS011;4336;49.310;8.646;2022-10-29T00:33:31;11.57;;;4.53;;
8596;SDS011;4336;49.310;8.646;2022-10-29T00:35:57;6.23;;;4.30;;
8596;SDS011;4336;49.310;8.646;2022-10-29T00:38:30;5.63;;;4.40;;
8596;SDS011;4336;49.310;8.646;2022-10-29T00:40:57;7.70;;;5.33;;
8596;SDS011;4336;49.310;8.646;2022-10-29T00:43:23;6.07;;;4.37;;
8596;SDS011;4336;49.310;8.646;2022-10-29T00:45:51;8.60;;;5.40;;
8596;SDS011;4336;49.310;8.646;2022-10-29T00:48:22;8.70;;;5.70;;
8596;SDS011;4336;49.310;8.646;2022-10-29T00:50:49;15.30;;;5.20;;
8596;SDS011;4336;49.310;8.646;2022-10-29T00:53:17;12.90;;;5.67;;
8596;SDS011;4336;49.310;8.646;2022-10-29T00:55:44;16.00;;;5.03;;
8596;SDS011;4336;49.310;8.646;2022-10-29T00:58:10;10.57;;;4.67;;
8596;SDS011;4336;49.310;8.646;2022-10-29T01:00:36;8.33;;;3.97;;
8596;SDS011;4336;49.310;8.646;2022-10-29T01:03:03;9.30;;;5.20;;
8596;SDS011;4336;49.310;8.646;2022-10-29T01:05:29;9.37;;;4.80;;
8596;SDS011;4336;49.310;8.646;2022-10-29T01:07:56;8.93;;;4.83;;
8596;SDS011;4336;49.310;8.646;2022-10-29T01:10:24;9.83;;;4.93;;
8596;SDS011;4336;49.310;8.646;2022-10-29T01:13:01;7.67;;;4.47;;
8596;SDS011;4336;49.310;8.646;2022-10-29T01:15:39;11.83;;;4.27;;
8596;SDS011;4336;49.310;8.646;2022-10-29T01:31:48;17.60;;;4.57;;
8596;SDS011;4336;49.310;8.646;2022-10-29T01:34:46;8.80;;;4.67;;
8596;SDS011;4336;49.310;8.646;2022-10-29T01:37:32;10.10;;;4.10;;
8596;SDS011;4336;49.310;8.646;2022-10-29T01:40:31;7.77;;;4.77;;
8596;SDS011;4336;49.310;8.646;2022-10-29T01:43:40;7.20;;;4.87;;
8596;SDS011;4336;49.310;8.646;2022-10-29T01:46:05;6.70;;;4.20;;
8596;SDS011;4336;49.310;8.646;2022-10-29T01:48:44;9.33;;;4.53;;
8596;SDS011;4336;49.310;8.646;2022-10-29T01:51:16;16.67;;;4.90;;
8596;SDS011;4336;49.310;8.646;2022-10-29T01:53:44;16.13;;;4.43;;
8596;SDS011;4336;49.310;8.646;2022-10-29T01:56:10;9.70;;;4.33;;
8596;SDS011;4336;49.310;8.646;2022-10-29T01:58:36;9.77;;;4.40;;
8596;SDS011;4336;49.310;8.646;2022-10-29T02:09:24;7.73;;;4.37;;
8596;SDS011;4336;49.310;8.646;2022-10-29T02:12:08;13.70;;;4.23;;
8596;SDS011;4336;49.310;8.646;2022-10-29T02:14:48;10.70;;;4.20;;
8596;SDS011;4336;49.310;8.646;2022-10-29T02:17:23;14.00;;;4.53;;
8596;SDS011;4336;49.310;8.646;2022-10-29T02:19:48;9.63;;;4.30;;
8596;SDS011;4336;49.310;8.646;2022-10-29T02:22:14;11.17;;;4.53;;
8596;SDS011;4336;49.310;8.646;2022-10-29T02:24:40;17.67;;;5.70;;
8596;SDS011;4336;49.310;8.646;2022-10-29T02:27:06;11.83;;;3.73;;
8596;SDS011;4336;49.310;8.646;2022-10-29T02:29:32;9.93;;;4.77;;
8596;SDS011;4336;49.310;8.646;2022-10-29T02:31:58;7.30;;;4.63;;
8596;SDS011;4336;49.310;8.646;2022-10-29T02:34:23;12.47;;;4.13;;
8596;SDS011;4336;49.310;8.646;2022-10-29T02:36:49;7.10;;;4.27;;
8596;SDS011;4336;49.310;8.646;2022-10-29T02:39:15;11.23;;;3.83;;
8596;SDS011;4336;49.310;8.646;2022-10-29T02:41:40;4.67;;;3.30;;
8596;SDS011;4336;49.310;8.646;2022-10-29T02:44:06;6.03;;;4.00;;
8596;SDS011;4336;49.310;8.646;2022-10-29T02:46:32;12.10;;;4.70;;
8596;SDS011;4336;49.310;8.646;2022-10-29T02:49:00;8.47;;;3.40;;
8596;SDS011;4336;49.310;8.646;2022-10-29T02:51:26;6.37;;;4.30;;
8596;SDS011;4336;49.310;8.646;2022-10-29T02:53:51;7.07;;;3.90;;
8596;SDS011;4336;49.310;8.646;2022-10-29T02:56:17;10.07;;;3.90;;
8596;SDS011;4336;49.310;8.646;2022-10-29T02:58:43;7.47;;;4.20;;
8596;SDS011;4336;49.310;8.646;2022-10-29T03:01:09;3.97;;;3.47;;
8596;SDS011;4336;49.310;8.646;2022-10-29T03:03:35;14.47;;;4.20;;
8596;SDS011;4336;49.310;8.646;2022-10-29T03:06:00;4.03;;;3.40;;
8596;SDS011;4336;49.310;8.646;2022-10-29T03:08:26;10.63;;;5.07;;
8596;SDS011;4336;49.310;8.646;2022-10-29T03:10:53;9.23;;;4.10;;
8596;SDS011;4336;49.310;8.646;2022-10-29T03:13:19;10.93;;;5.00;;
8596;SDS011;4336;49.310;8.646;2022-10-29T03:15:45;10.53;;;5.03;;
8596;SDS011;4336;49.310;8.646;2022-10-29T03:18:10;10.60;;;5.27;;
8596;SDS011;4336;49.310;8.646;2022-10-29T03:20:36;20.07;;;4.57;;
8596;SDS011;4336;49.310;8.646;2022-10-29T03:23:02;3.80;;;3.40;;
8596;SDS011;4336;49.310;8.646;2022-10-29T03:25:28;6.50;;;4.17;;
8596;SDS011;4336;49.310;8.646;2022-10-29T03:27:54;6.93;;;4.37;;
8596;SDS011;4336;49.310;8.646;2022-10-29T03:30:19;6.10;;;3.73;;
8596;SDS011;4336;49.310;8.646;2022-10-29T03:32:46;7.47;;;3.70;;
8596;SDS011;4336;49.310;8.646;2022-10-29T03:35:12;9.63;;;3.90;;
8596;SDS011;4336;49.310;8.646;2022-10-29T03:37:39;7.60;;;4.87;;
8596;SDS011;4336;49.310;8.646;2022-10-29T03:40:05;16.63;;;5.63;;
8596;SDS011;4336;49.310;8.646;2022-10-29T03:42:31;5.27;;;4.03;;
8596;SDS011;4336;49.310;8.646;2022-10-29T03:44:57;7.77;;;3.77;;
8596;SDS011;4336;49.310;8.646;2022-10-29T03:47:24;21.27;;;4.73;;
8596;SDS011;4336;49.310;8.646;2022-10-29T03:49:50;6.73;;;4.40;;
8596;SDS011;4336;49.310;8.646;2022-10-29T03:52:15;11.70;;;5.00;;
8596;SDS011;4336;49.310;8.646;2022-10-29T03:54:41;4.87;;;4.37;;
8596;SDS011;4336;49.310;8.646;2022-10-29T03:57:07;8.43;;;4.73;;
8596;SDS011;4336;49.310;8.646;2022-10-29T03:59:33;7.83;;;3.83;;
8596;SDS011;4336;49.310;8.646;2022-10-29T04:01:59;10.70;;;4.30;;
8596;SDS011;4336;49.310;8.646;2022-10-29T04:04:25;11.73;;;4.33;;
8596;SDS011;4336;49.310;8.646;2022-10-29T04:06:50;6.00;;;3.90;;
8596;SDS011;4336;49.310;8.646;2022-10-29T04:09:16;8.00;;;3.90;;
8596;SDS011;4336;49.310;8.646;2022-10-29T04:11:42;7.20;;;3.90;;
8596;SDS011;4336;49.310;8.646;2022-10-29T04:14:07;10.03;;;4.60;;
8596;SDS011;4336;49.310;8.646;2022-10-29T04:16:33;11.50;;;4.07;;
8596;SDS011;4336;49.310;8.646;2022-10-29T04:18:59;9.27;;;4.47;;
8596;SDS011;4336;49.310;8.646;2022-10-29T04:21:25;16.10;;;4.10;;
8596;SDS011;4336;49.310;8.646;2022-10-29T04:23:50;7.47;;;3.80;;
8596;SDS011;4336;49.310;8.646;2022-10-29T04:26:16;5.53;;;3.67;;
8596;SDS011;4336;49.310;8.646;2022-10-29T04:28:42;8.07;;;3.77;;
8596;SDS011;4336;49.310;8.646;2022-10-29T04:31:10;15.30;;;5.03;;
8596;SDS011;4336;49.310;8.646;2022-10-29T04:33:36;13.40;;;4.10;;
8596;SDS011;4336;49.310;8.646;2022-10-29T04:36:02;10.30;;;4.23;;
8596;SDS011;4336;49.310;8.646;2022-10-29T04:38:28;19.47;;;6.00;;
8596;SDS011;4336;49.310;8.646;2022-10-29T04:40:57;16.47;;;4.13;;
8596;SDS011;4336;49.310;8.646;2022-10-29T04:43:24;16.67;;;4.63;;
8596;SDS011;4336;49.310;8.646;2022-10-29T04:45:51;9.80;;;4.03;;
8596;SDS011;4336;49.310;8.646;2022-10-29T04:48:17;14.53;;;5.73;;
8596;SDS011;4336;49.310;8.646;2022-10-29T04:50:44;15.00;;;4.23;;
8596;SDS011;4336;49.310;8.646;2022-10-29T04:53:09;10.70;;;3.97;;
8596;SDS011;4336;49.310;8.646;2022-10-29T04:55:36;9.70;;;3.57;;
8596;SDS011;4336;49.310;8.646;2022-10-29T04:58:03;7.53;;;4.00;;
8596;SDS011;4336;49.310;8.646;2022-10-29T05:00:29;8.30;;;4.27;;
8596;SDS011;4336;49.310;8.646;2022-10-29T05:02:55;4.83;;;3.93;;
8596;SDS011;4336;49.310;8.646;2022-10-29T05:05:21;13.80;;;4.27;;
8596;SDS011;4336;49.310;8.646;2022-10-29T05:07:46;15.43;;;3.53;;
8596;SDS011;4336;49.310;8.646;2022-10-29T05:10:12;7.83;;;4.13;;
8596;SDS011;4336;49.310;8.646;2022-10-29T05:12:38;8.87;;;4.27;;
8596;SDS011;4336;49.310;8.646;2022-10-29T05:15:04;10.60;;;4.90;;
8596;SDS011;4336;49.310;8.646;2022-10-29T05:17:31;7.97;;;3.80;;
8596;SDS011;4336;49.310;8.646;2022-10-29T05:20:01;7.20;;;4.33;;
8596;SDS011;4336;49.310;8.646;2022-10-29T05:22:27;10.43;;;3.97;;
8596;SDS011;4336;49.310;8.646;2022-10-29T05:24:53;17.17;;;4.80;;
8596;SDS011;4336;49.310;8.646;2022-10-29T05:27:19;15.77;;;4.03;;
8596;SDS011;4336;49.310;8.646;2022-10-29T05:29:45;14.67;;;4.43;;
8596;SDS011;4336;49.310;8.646;2022-10-29T05:32:11;16.17;;;4.80;;
8596;SDS011;4336;49.310;8.646;2022-10-29T05:34:36;7.33;;;4.17;;
8596;SDS011;4336;49.310;8.646;2022-10-29T05:37:02;6.47;;;4.20;;
8596;SDS011;4336;49.310;8.646;2022-10-29T05:39:28;12.30;;;3.95;;
8596;SDS011;4336;49.310;8.646;2022-10-29T05:41:53;9.00;;;4.13;;
8596;SDS011;4336;49.310;8.646;2022-10-29T05:44:19;9.93;;;4.43;;
8596;SDS011;4336;49.310;8.646;2022-10-29T05:46:47;15.97;;;5.37;;
8596;SDS011;4336;49.310;8.646;2022-10-29T05:49:13;10.93;;;4.27;;
8596;SDS011;4336;49.310;8.646;2022-10-29T05:51:39;16.20;;;5.30;;
8596;SDS011;4336;49.310;8.646;2022-10-29T05:54:05;5.97;;;4.13;;
8596;SDS011;4336;49.310;8.646;2022-10-29T05:56:30;10.70;;;3.83;;
8596;SDS011;4336;49.310;8.646;2022-10-29T05:58:57;6.27;;;3.93;;
8596;SDS011;4336;49.310;8.646;2022-10-29T06:01:23;10.10;;;5.23;;
8596;SDS011;4336;49.310;8.646;2022-10-29T06:03:48;12.30;;;4.20;;
8596;SDS011;4336;49.310;8.646;2022-10-29T06:06:14;17.27;;;5.27;;
8596;SDS011;4336;49.310;8.646;2022-10-29T06:08:40;8.93;;;3.83;;
8596;SDS011;4336;49.310;8.646;2022-10-29T06:11:05;10.47;;;4.50;;
8596;SDS011;4336;49.310;8.646;2022-10-29T06:13:31;9.93;;;4.97;;
8596;SDS011;4336;49.310;8.646;2022-10-29T06:15:58;11.93;;;4.43;;
8596;SDS011;4336;49.310;8.646;2022-10-29T06:18:24;7.63;;;4.87;;
8596;SDS011;4336;49.310;8.646;2022-10-29T06:20:51;13.20;;;4.47;;
8596;SDS011;4336;49.310;8.646;2022-10-29T06:23:18;9.60;;;4.27;;
8596;SDS011;4336;49.310;8.646;2022-10-29T06:25:43;10.60;;;4.73;;
8596;SDS011;4336;49.310;8.646;2022-10-29T06:28:10;16.57;;;4.63;;
8596;SDS011;4336;49.310;8.646;2022-10-29T06:30:39;8.10;;;4.23;;
8596;SDS011;4336;49.310;8.646;2022-10-29T06:33:05;9.10;;;3.97;;
8596;SDS011;4336;49.310;8.646;2022-10-29T06:35:31;12.53;;;4.53;;
8596;SDS011;4336;49.310;8.646;2022-10-29T06:37:57;20.27;;;5.90;;
8596;SDS011;4336;49.310;8.646;2022-10-29T06:40:23;11.20;;;3.63;;
8596;SDS011;4336;49.310;8.646;2022-10-29T06:42:48;9.00;;;4.27;;
8596;SDS011;4336;49.310;8.646;2022-10-29T06:45:14;16.27;;;4.77;;
8596;SDS011;4336;49.310;8.646;2022-10-29T06:47:40;8.47;;;3.80;;
8596;SDS011;4336;49.310;8.646;2022-10-29T06:50:08;10.23;;;4.67;;
8596;SDS011;4336;49.310;8.646;2022-10-29T06:52:34;8.30;;;4.20;;
8596;SDS011;4336;49.310;8.646;2022-10-29T06:55:00;8.10;;;3.87;;
8596;SDS011;4336;49.310;8.646;2022-10-29T06:57:29;12.37;;;4.83;;
8596;SDS011;4336;49.310;8.646;2022-10-29T06:59:54;16.73;;;4.93;;
8596;SDS011;4336;49.310;8.646;2022-10-29T07:02:20;10.43;;;3.67;;
8596;SDS011;4336;49.310;8.646;2022-10-29T07:04:47;15.43;;;4.30;;
8596;SDS011;4336;49.310;8.646;2022-10-29T07:07:13;13.80;;;4.67;;
8596;SDS011;4336;49.310;8.646;2022-10-29T07:09:39;8.83;;;4.00;;
8596;SDS011;4336;49.310;8.646;2022-10-29T07:12:05;8.43;;;4.00;;
8596;SDS011;4336;49.310;8.646;2022-10-29T07:14:31;10.70;;;4.00;;
8596;SDS011;4336;49.310;8.646;2022-10-29T07:16:57;9.23;;;4.27;;
8596;SDS011;4336;49.310;8.646;2022-10-29T07:19:22;9.63;;;5.10;;
8596;SDS011;4336;49.310;8.646;2022-10-29T07:21:48;11.97;;;5.00;;
8596;SDS011;4336;49.310;8.646;2022-10-29T07:24:14;8.60;;;4.77;;
8596;SDS011;4336;49.310;8.646;2022-10-29T07:26:41;6.93;;;3.97;;
8596;SDS011;4336;49.310;8.646;2022-10-29T07:29:08;10.97;;;4.90;;
8596;SDS011;4336;49.310;8.646;2022-10-29T07:31:34;7.13;;;4.53;;
8596;SDS011;4336;49.310;8.646;2022-10-29T07:33:59;13.30;;;3.57;;
8596;SDS011;4336;49.310;8.646;2022-10-29T07:36:25;7.10;;;3.17;;
8596;SDS011;4336;49.310;8.646;2022-10-29T07:38:51;9.03;;;3.60;;
8596;SDS011;4336;49.310;8.646;2022-10-29T07:41:17;13.90;;;3.67;;
8596;SDS011;4336;49.310;8.646;2022-10-29T07:43:42;6.77;;;4.17;;
8596;SDS011;4336;49.310;8.646;2022-10-29T07:46:08;8.17;;;4.17;;
8596;SDS011;4336;49.310;8.646;2022-10-29T07:48:34;10.50;;;4.10;;
8596;SDS011;4336;49.310;8.646;2022-10-29T07:51:00;15.90;;;5.63;;
8596;SDS011;4336;49.310;8.646;2022-10-29T07:53:26;17.47;;;5.03;;
8596;SDS011;4336;49.310;8.646;2022-10-29T07:55:55;13.37;;;3.97;;
8596;SDS011;4336;49.310;8.646;2022-10-29T07:58:21;13.73;;;4.63;;
8596;SDS011;4336;49.310;8.646;2022-10-29T08:00:47;4.63;;;3.60;;
8596;SDS011;4336;49.310;8.646;2022-10-29T08:03:13;6.87;;;4.57;;
8596;SDS011;4336;49.310;8.646;2022-10-29T08:05:39;14.53;;;4.37;;
8596;SDS011;4336;49.310;8.646;2022-10-29T08:08:05;7.40;;;3.80;;
8596;SDS011;4336;49.310;8.646;2022-10-29T08:10:32;15.93;;;5.83;;
8596;SDS011;4336;49.310;8.646;2022-10-29T08:12:59;12.07;;;4.03;;
8596;SDS011;4336;49.310;8.646;2022-10-29T08:15:26;12.50;;;4.07;;
8596;SDS011;4336;49.310;8.646;2022-10-29T08:17:54;8.33;;;3.93;;
8596;SDS011;4336;49.310;8.646;2022-10-29T08:20:21;13.83;;;4.53;;
8596;SDS011;4336;49.310;8.646;2022-10-29T08:22:48;9.13;;;3.87;;
8596;SDS011;4336;49.310;8.646;2022-10-29T08:25:14;9.40;;;4.37;;
8596;SDS011;4336;49.310;8.646;2022-10-29T08:27:40;11.23;;;3.60;;
8596;SDS011;4336;49.310;8.646;2022-10-29T08:30:07;6.73;;;3.77;;
8596;SDS011;4336;49.310;8.646;2022-10-29T08:32:34;7.77;;;4.07;;
8596;SDS011;4336;49.310;8.646;2022-10-29T08:35:00;13.10;;;3.97;;
8596;SDS011;4336;49.310;8.646;2022-10-29T08:37:26;8.93;;;3.27;;
8596;SDS011;4336;49.310;8.646;2022-10-29T08:39:52;12.57;;;4.70;;
8596;SDS011;4336;49.310;8.646;2022-10-29T08:42:27;5.20;;;3.50;;
8596;SDS011;4336;49.310;8.646;2022-10-29T08:47:49;12.23;;;3.40;;
8596;SDS011;4336;49.310;8.646;2022-10-29T08:50:27;12.03;;;4.60;;
8596;SDS011;4336;49.310;8.646;2022-10-29T08:52:55;7.67;;;3.37;;
8596;SDS011;4336;49.310;8.646;2022-10-29T08:55:25;11.13;;;4.10;;
8596;SDS011;4336;49.310;8.646;2022-10-29T08:57:58;10.87;;;3.67;;
8596;SDS011;4336;49.310;8.646;2022-10-29T09:00:33;5.53;;;3.93;;
8596;SDS011;4336;49.310;8.646;2022-10-29T09:03:07;14.50;;;3.60;;
8596;SDS011;4336;49.310;8.646;2022-10-29T09:08:30;6.33;;;4.30;;
8596;SDS011;4336;49.310;8.646;2022-10-29T09:11:08;9.20;;;3.40;;
8596;SDS011;4336;49.310;8.646;2022-10-29T09:16:41;7.33;;;4.30;;
8596;SDS011;4336;49.310;8.646;2022-10-29T09:22:21;7.30;;;3.60;;
8596;SDS011;4336;49.310;8.646;2022-10-29T09:25:13;11.00;;;4.00;;
8596;SDS011;4336;49.310;8.646;2022-10-29T09:33:41;15.20;;;3.97;;
8596;SDS011;4336;49.310;8.646;2022-10-29T09:36:11;7.60;;;3.63;;
8596;SDS011;4336;49.310;8.646;2022-10-29T09:41:29;8.90;;;3.30;;
8596;SDS011;4336;49.310;8.646;2022-10-29T09:44:05;15.68;;;4.20;;
8596;SDS011;4336;49.310;8.646;2022-10-29T09:46:36;6.63;;;3.80;;
8596;SDS011;4336;49.310;8.646;2022-10-29T09:49:35;10.13;;;3.53;;
8596;SDS011;4336;49.310;8.646;2022-10-29T09:52:14;7.93;;;3.93;;
8596;SDS011;4336;49.310;8.646;2022-10-29T09:54:45;16.27;;;4.20;;
8596;SDS011;4336;49.310;8.646;2022-10-29T09:57:24;10.97;;;3.93;;
8596;SDS011;4336;49.310;8.646;2022-10-29T09:59:57;9.23;;;4.22;;
8596;SDS011;4336;49.310;8.646;2022-10-29T10:02:44;4.95;;;3.22;;
8596;SDS011;4336;49.310;8.646;2022-10-29T10:05:34;7.75;;;3.72;;
8596;SDS011;4336;49.310;8.646;2022-10-29T10:08:04;7.97;;;4.03;;
8596;SDS011;4336;49.310;8.646;2022-10-29T10:10:32;11.75;;;4.53;;
8596;SDS011;4336;49.310;8.646;2022-10-29T10:13:03;11.95;;;3.88;;
8596;SDS011;4336;49.310;8.646;2022-10-29T10:15:33;10.95;;;4.10;;
8596;SDS011;4336;49.310;8.646;2022-10-29T10:18:01;17.15;;;4.55;;
8596;SDS011;4336;49.310;8.646;2022-10-29T10:20:48;7.05;;;3.58;;
8596;SDS011;4336;49.310;8.646;2022-10-29T10:23:45;11.75;;;3.58;;
8596;SDS011;4336;49.310;8.646;2022-10-29T10:29:10;5.55;;;3.45;;
8596;SDS011;4336;49.310;8.646;2022-10-29T10:31:44;8.75;;;3.88;;
8596;SDS011;4336;49.310;8.646;2022-10-29T10:34:13;7.07;;;4.60;;
8596;SDS011;4336;49.310;8.646;2022-10-29T10:36:47;10.85;;;3.42;;
8596;SDS011;4336;49.310;8.646;2022-10-29T10:39:29;6.63;;;4.05;;
8596;SDS011;4336;49.310;8.646;2022-10-29T10:41:56;18.02;;;4.75;;
8596;SDS011;4336;49.310;8.646;2022-10-29T10:44:23;11.00;;;3.45;;
8596;SDS011;4336;49.310;8.646;2022-10-29T10:46:51;11.77;;;4.32;;
8596;SDS011;4336;49.310;8.646;2022-10-29T10:49:27;9.05;;;3.67;;
8596;SDS011;4336;49.310;8.646;2022-10-29T10:51:55;15.70;;;4.40;;
8596;SDS011;4336;49.310;8.646;2022-10-29T10:54:36;12.70;;;3.95;;
8596;SDS011;4336;49.310;8.646;2022-10-29T11:05:21;5.95;;;3.75;;
8596;SDS011;4336;49.310;8.646;2022-10-29T11:07:52;8.15;;;4.22;;
8596;SDS011;4336;49.310;8.646;2022-10-29T11:11:03;9.48;;;5.97;;
8596;SDS011;4336;49.310;8.646;2022-10-29T11:13:26;7.18;;;4.10;;
8596;SDS011;4336;49.310;8.646;2022-10-29T11:21:11;13.43;;;4.40;;
8596;SDS011;4336;49.310;8.646;2022-10-29T11:26:39;11.18;;;3.55;;
8596;SDS011;4336;49.310;8.646;2022-10-29T11:32:17;7.10;;;3.47;;
8596;SDS011;4336;49.310;8.646;2022-10-29T11:34:48;8.63;;;3.80;;
8596;SDS011;4336;49.310;8.646;2022-10-29T11:37:22;16.02;;;4.10;;
8596;SDS011;4336;49.310;8.646;2022-10-29T11:39:55;13.95;;;4.25;;
8596;SDS011;4336;49.310;8.646;2022-10-29T11:42:23;15.07;;;3.87;;
8596;SDS011;4336;49.310;8.646;2022-10-29T11:44:49;8.55;;;3.60;;
8596;SDS011;4336;49.310;8.646;2022-10-29T11:50:06;11.70;;;3.60;;
8596;SDS011;4336;49.310;8.646;2022-10-29T11:58:45;7.90;;;4.47;;
8596;SDS011;4336;49.310;8.646;2022-10-29T12:01:21;10.50;;;3.33;;
8596;SDS011;4336;49.310;8.646;2022-10-29T12:03:52;9.70;;;3.40;;
8596;SDS011;4336;49.310;8.646;2022-10-29T12:14:44;16.53;;;5.40;;
8596;SDS011;4336;49.310;8.646;2022-10-29T12:17:36;8.57;;;4.27;;
8596;SDS011;4336;49.310;8.646;2022-10-29T12:20:28;8.63;;;3.50;;
8596;SDS011;4336;49.310;8.646;2022-10-29T12:26:10;11.97;;;3.90;;
8596;SDS011;4336;49.310;8.646;2022-10-29T12:31:38;10.77;;;3.40;;
8596;SDS011;4336;49.310;8.646;2022-10-29T12:37:12;7.07;;;4.27;;
8596;SDS011;4336;49.310;8.646;2022-10-29T12:39:59;12.63;;;3.83;;
8596;SDS011;4336;49.310;8.646;2022-10-29T12:42:27;7.90;;;3.60;;
8596;SDS011;4336;49.310;8.646;2022-10-29T12:45:00;8.63;;;4.50;;
8596;SDS011;4336;49.310;8.646;2022-10-29T12:52:51;12.37;;;3.90;;
8596;SDS011;4336;49.310;8.646;2022-10-29T12:55:22;8.87;;;3.40;;
8596;SDS011;4336;49.310;8.646;2022-10-29T12:57:48;6.90;;;3.23;;
8596;SDS011;4336;49.310;8.646;2022-10-29T13:02:49;12.57;;;3.70;;
8596;SDS011;4336;49.310;8.646;2022-10-29T13:05:33;10.83;;;4.07;;
8596;SDS011;4336;49.310;8.646;2022-10-29T13:15:27;9.80;;;3.77;;
8596;SDS011;4336;49.310;8.646;2022-10-29T13:17:58;5.90;;;3.40;;
8596;SDS011;4336;49.310;8.646;2022-10-29T13:20:46;14.97;;;3.93;;
8596;SDS011;4336;49.310;8.646;2022-10-29T13:30:47;22.33;;;3.40;;
8596;SDS011;4336;49.310;8.646;2022-10-29T13:38:44;18.27;;;4.43;;
8596;SDS011;4336;49.310;8.646;2022-10-29T13:41:17;5.87;;;3.40;;
8596;SDS011;4336;49.310;8.646;2022-10-29T13:44:00;10.77;;;3.53;;
8596;SDS011;4336;49.310;8.646;2022-10-29T13:49:26;7.40;;;3.47;;
8596;SDS011;4336;49.310;8.646;2022-10-29T13:57:01;6.03;;;3.80;;
8596;SDS011;4336;49.310;8.646;2022-10-29T14:02:14;20.27;;;3.90;;
8596;SDS011;4336;49.310;8.646;2022-10-29T14:04:48;7.07;;;3.20;;
8596;SDS011;4336;49.310;8.646;2022-10-29T14:07:20;11.33;;;4.53;;
8596;SDS011;4336;49.310;8.646;2022-10-29T14:09:53;6.07;;;3.67;;
8596;SDS011;4336;49.310;8.646;2022-10-29T14:12:20;13.77;;;4.80;;
8596;SDS011;4336;49.310;8.646;2022-10-29T14:15:05;9.23;;;3.90;;
8596;SDS011;4336;49.310;8.646;2022-10-29T14:17:35;7.80;;;3.43;;
8596;SDS011;4336;49.310;8.646;2022-10-29T14:20:00;19.73;;;4.37;;
8596;SDS011;4336;49.310;8.646;2022-10-29T14:22:30;11.67;;;4.30;;
8596;SDS011;4336;49.310;8.646;2022-10-29T14:25:47;14.13;;;3.90;;
8596;SDS011;4336;49.310;8.646;2022-10-29T14:30:46;5.70;;;3.30;;
8596;SDS011;4336;49.310;8.646;2022-10-29T14:33:16;3.87;;;3.43;;
8596;SDS011;4336;49.310;8.646;2022-10-29T14:35:43;6.50;;;3.47;;
8596;SDS011;4336;49.310;8.646;2022-10-29T14:38:10;6.20;;;3.40;;
8596;SDS011;4336;49.310;8.646;2022-10-29T14:40:37;11.33;;;4.27;;
8596;SDS011;4336;49.310;8.646;2022-10-29T14:43:03;30.37;;;4.90;;
8596;SDS011;4336;49.310;8.646;2022-10-29T14:45:29;10.47;;;3.83;;
8596;SDS011;4336;49.310;8.646;2022-10-29T14:47:59;8.90;;;3.60;;
8596;SDS011;4336;49.310;8.646;2022-10-29T14:50:29;7.23;;;3.43;;
8596;SDS011;4336;49.310;8.646;2022-10-29T14:53:05;9.50;;;3.70;;
8596;SDS011;4336;49.310;8.646;2022-10-29T14:55:44;6.70;;;3.47;;
8596;SDS011;4336;49.310;8.646;2022-10-29T14:58:14;13.17;;;5.63;;
8596;SDS011;4336;49.310;8.646;2022-10-29T15:00:49;18.90;;;8.13;;
8596;SDS011;4336;49.310;8.646;2022-10-29T15:03:31;8.77;;;4.30;;
8596;SDS011;4336;49.310;8.646;2022-10-29T15:08:57;9.87;;;4.03;;
8596;SDS011;4336;49.310;8.646;2022-10-29T15:11:35;7.27;;;4.40;;
8596;SDS011;4336;49.310;8.646;2022-10-29T15:14:02;11.47;;;7.27;;
8596;SDS011;4336;49.310;8.646;2022-10-29T15:16:31;7.90;;;6.17;;
8596;SDS011;4336;49.310;8.646;2022-10-29T15:18:57;7.57;;;6.57;;
8596;SDS011;4336;49.310;8.646;2022-10-29T15:21:32;17.17;;;8.17;;
8596;SDS011;4336;49.310;8.646;2022-10-29T15:24:03;12.30;;;7.43;;
8596;SDS011;4336;49.310;8.646;2022-10-29T15:26:33;10.80;;;7.50;;
8596;SDS011;4336;49.310;8.646;2022-10-29T15:28:59;8.97;;;6.70;;
8596;SDS011;4336;49.310;8.646;2022-10-29T15:34:17;9.00;;;6.27;;
8596;SDS011;4336;49.310;8.646;2022-10-29T15:36:50;9.40;;;6.73;;
8596;SDS011;4336;49.310;8.646;2022-10-29T15:39:24;13.00;;;7.77;;
8596;SDS011;4336;49.310;8.646;2022-10-29T15:41:55;12.47;;;7.53;;
8596;SDS011;4336;49.310;8.646;2022-10-29T15:46:53;20.57;;;8.60;;
8596;SDS011;4336;49.310;8.646;2022-10-29T15:49:23;13.63;;;6.23;;
8596;SDS011;4336;49.310;8.646;2022-10-29T15:51:51;15.70;;;7.53;;
8596;SDS011;4336;49.310;8.646;2022-10-29T15:54:18;17.50;;;9.13;;
8596;SDS011;4336;49.310;8.646;2022-10-29T15:56:44;17.10;;;7.60;;
8596;SDS011;4336;49.310;8.646;2022-10-29T15:59:12;13.70;;;6.97;;
8596;SDS011;4336;49.310;8.646;2022-10-29T16:01:39;12.33;;;8.53;;
8596;SDS011;4336;49.310;8.646;2022-10-29T16:04:04;11.87;;;7.10;;
8596;SDS011;4336;49.310;8.646;2022-10-29T16:06:30;8.13;;;7.33;;
8596;SDS011;4336;49.310;8.646;2022-10-29T16:08:56;13.37;;;8.23;;
8596;SDS011;4336;49.310;8.646;2022-10-29T16:11:23;12.30;;;6.60;;
8596;SDS011;4336;49.310;8.646;2022-10-29T16:13:50;8.60;;;6.87;;
8596;SDS011;4336;49.310;8.646;2022-10-29T16:16:17;9.37;;;8.33;;
8596;SDS011;4336;49.310;8.646;2022-10-29T16:18:45;10.73;;;6.63;;
8596;SDS011;4336;49.310;8.646;2022-10-29T16:21:17;13.47;;;7.17;;
8596;SDS011;4336;49.310;8.646;2022-10-29T16:23:45;17.37;;;7.60;;
8596;SDS011;4336;49.310;8.646;2022-10-29T16:26:15;12.07;;;8.23;;
8596;SDS011;4336;49.310;8.646;2022-10-29T16:28:42;18.07;;;8.00;;
8596;SDS011;4336;49.310;8.646;2022-10-29T16:31:19;17.93;;;7.30;;
8596;SDS011;4336;49.310;8.646;2022-10-29T16:33:47;9.10;;;6.47;;
8596;SDS011;4336;49.310;8.646;2022-10-29T16:36:14;11.43;;;8.37;;
8596;SDS011;4336;49.310;8.646;2022-10-29T16:38:40;11.97;;;8.10;;
8596;SDS011;4336;49.310;8.646;2022-10-29T16:41:08;15.63;;;9.13;;
8596;SDS011;4336;49.310;8.646;2022-10-29T16:43:38;12.77;;;8.67;;
8596;SDS011;4336;49.310;8.646;2022-10-29T16:46:05;19.20;;;10.60;;
8596;SDS011;4336;49.310;8.646;2022-10-29T16:48:31;30.47;;;9.27;;
8596;SDS011;4336;49.310;8.646;2022-10-29T16:50:57;16.43;;;8.90;;
8596;SDS011;4336;49.310;8.646;2022-10-29T16:53:23;12.17;;;9.87;;
8596;SDS011;4336;49.310;8.646;2022-10-29T16:55:49;20.43;;;8.27;;
8596;SDS011;4336;49.310;8.646;2022-10-29T16:58:15;15.80;;;9.63;;
8596;SDS011;4336;49.310;8.646;2022-10-29T17:00:42;11.67;;;8.67;;
8596;SDS011;4336;49.310;8.646;2022-10-29T17:03:09;16.93;;;6.90;;
8596;SDS011;4336;49.310;8.646;2022-10-29T17:05:37;18.40;;;9.43;;
8596;SDS011;4336;49.310;8.646;2022-10-29T17:08:04;13.13;;;9.93;;
8596;SDS011;4336;49.310;8.646;2022-10-29T17:10:30;12.77;;;7.23;;
8596;SDS011;4336;49.310;8.646;2022-10-29T17:12:56;13.33;;;8.23;;
8596;SDS011;4336;49.310;8.646;2022-10-29T17:15:22;16.13;;;8.90;;
8596;SDS011;4336;49.310;8.646;2022-10-29T17:17:48;8.70;;;6.93;;
8596;SDS011;4336;49.310;8.646;2022-10-29T17:20:13;14.63;;;9.20;;
8596;SDS011;4336;49.310;8.646;2022-10-29T17:22:41;10.77;;;6.87;;
8596;SDS011;4336;49.310;8.646;2022-10-29T17:25:07;10.43;;;7.40;;
8596;SDS011;4336;49.310;8.646;2022-10-29T17:27:33;11.07;;;8.00;;
8596;SDS011;4336;49.310;8.646;2022-10-29T17:30:01;13.10;;;7.13;;
8596;SDS011;4336;49.310;8.646;2022-10-29T17:32:28;9.17;;;7.40;;
8596;SDS011;4336;49.310;8.646;2022-10-29T17:34:57;18.97;;;8.60;;
8596;SDS011;4336;49.310;8.646;2022-10-29T17:37:23;15.77;;;9.97;;
8596;SDS011;4336;49.310;8.646;2022-10-29T17:39:51;11.97;;;7.20;;
8596;SDS011;4336;49.310;8.646;2022-10-29T17:42:17;13.80;;;10.17;;